WetterOnline ( https://www.wetteronline.de )

Wetter aktuell Eisingen

Aktuelles Wetter: Mühlacker (245m)

6-stündlich | Neueste Meldungen
Ortszeit Temperatur Wetter
Sa, 29.01. 1:00 -0.3° C bedeckt
Fr, 28.01. 19:00 3.4° C bedeckt
Fr, 28.01. 13:00 5.0° C wolkig
Fr, 28.01. 7:00 2.4° C fast wolkenlos
Fr, 28.01. 1:00 2.7° C bewölkt
Do, 27.01. 19:00 3.4° C Sprühregen
Do, 27.01. 13:00 1.1° C bedeckt
Do, 27.01. 7:00 -1.9° C bedeckt
Ortszeit Temperatur Wetter
Sa, 29.01. 3:30 2.1° C bewölkt
Sa, 29.01. 3:20 2.1° C bewölkt
Sa, 29.01. 3:10 2.0° C bedeckt
Sa, 29.01. 3:00 2.0° C wolkig
Sa, 29.01. 2:50 2.0° C wolkig
Sa, 29.01. 2:40 2.0° C bedeckt
Sa, 29.01. 2:30 2.0° C wolkig
Sa, 29.01. 2:00 -0.2° C bedeckt
Sa, 29.01. 1:30 -0.4° C bedeckt
Sa, 29.01. 1:00 -0.3° C bedeckt
Sa, 29.01. 0:30 0.0° C wolkig
Ortszeit Relative Feuchte Sichtweite
Sa, 29.01. 1:00 92% 10 km
Fr, 28.01. 19:00 80% 26 km
Fr, 28.01. 13:00 74% 30 km
Fr, 28.01. 7:00 88% 17 km
Fr, 28.01. 1:00 89% 24 km
Do, 27.01. 19:00 90% 3.7 km
Do, 27.01. 13:00 83% 17 km
Do, 27.01. 7:00 91% 4.9 km
Ortszeit Relative Feuchte Sichtweite
Sa, 29.01. 3:30 85% 17 km
Sa, 29.01. 3:20 85% -
Sa, 29.01. 3:10 85% -
Sa, 29.01. 3:00 86% 18 km
Sa, 29.01. 2:50 86% -
Sa, 29.01. 2:40 86% -
Sa, 29.01. 2:30 87% 19 km
Sa, 29.01. 2:00 93% 11 km
Sa, 29.01. 1:30 93% 9 km
Sa, 29.01. 1:00 92% 10 km
Sa, 29.01. 0:30 93% 12 km
Ortszeit Niederschlagsmenge Niederschlagsart
Sa, 29.01. 1:00 0.0 l/m2 in 6 Std. -
Fr, 28.01. 19:00 0.1 l/m2 in 12 Std. -
Fr, 28.01. 13:00 0.1 l/m2 in 6 Std. Regen
Fr, 28.01. 7:00 0.6 l/m2 in 12 Std. -
Fr, 28.01. 1:00 0.6 l/m2 in 6 Std. Regen
Do, 27.01. 19:00 0.1 l/m2 in 12 Std. Regen
Do, 27.01. 13:00 0.1 l/m2 in 6 Std. Schnee, Sprühregen
Do, 27.01. 7:00 0.1 l/m2 in 12 Std. Schnee, Sprühregen
Ortszeit Niederschlagsmenge Niederschlagsart
Sa, 29.01. 3:30 0.0 l/m2 in 1 Std. -
Sa, 29.01. 3:20 keine Meldung -
Sa, 29.01. 3:10 keine Meldung -
Sa, 29.01. 3:00 0.0 l/m2 in 1 Std. -
Sa, 29.01. 2:50 keine Meldung -
Sa, 29.01. 2:40 keine Meldung -
Sa, 29.01. 2:30 0.0 l/m2 in 1 Std. -
Sa, 29.01. 2:00 0.0 l/m2 in 1 Std. -
Sa, 29.01. 1:30 0.0 l/m2 in 1 Std. -
Sa, 29.01. 1:00 0.0 l/m2 in 1 Std. -
Sa, 29.01. 0:30 0.0 l/m2 in 1 Std. -
Ortszeit Stärke Spitze Richtung
km/h Bft. km/h Grad Sektor
Sa, 29.01. 1:00 4 1 29 320° NW
Fr, 28.01. 19:00 14 3 43 250° W
Fr, 28.01. 13:00 22 4 40 280° W
Fr, 28.01. 7:00 22 4 47 270° W
Fr, 28.01. 1:00 24 4 65 260° W
Do, 27.01. 19:00 18 3 40 270° W
Do, 27.01. 13:00 6 1 37 250° W
Do, 27.01. 7:00 14 3 29 280° W
Ortszeit Stärke Spitze Richtung
km/h Bft. km/h Grad Sektor
Sa, 29.01. 3:30 7 2 17 270° W
Sa, 29.01. 3:20 7 2 - 270° W
Sa, 29.01. 3:10 7 2 - 280° W
Sa, 29.01. 3:00 6 1 20 280° W
Sa, 29.01. 2:50 6 1 - 280° W
Sa, 29.01. 2:40 9 2 - 280° W
Sa, 29.01. 2:30 9 2 20 270° W
Sa, 29.01. 2:00 4 1 11 300° NW
Sa, 29.01. 1:30 4 1 7 290° W
Sa, 29.01. 1:00 4 1 7 320° NW
Sa, 29.01. 0:30 4 1 7 250° W
Ortszeit Untergrenze Bedeckung Gattung
total tief tief mittel hoch
Sa, 29.01. 1:00 3000 m 8/8 8/8 - - -
Fr, 28.01. 19:00 3300 m 8/8 8/8 - - -
Fr, 28.01. 13:00 1440 m 7/8 5/8 - - -
Fr, 28.01. 7:00 1500 m 1/8 1/8 - - -
Fr, 28.01. 1:00 270 m 7/8 7/8 - - -
Do, 27.01. 19:00 330 m 8/8 8/8 - - -
Do, 27.01. 13:00 540 m 8/8 8/8 - - -
Do, 27.01. 7:00 120 m 8/8 8/8 - - -
Ortszeit Bedeckungsgrad in Achtel und Wolkenuntergrenze
Sa, 29.01. 3:30 6(300m) 7(930m) 8(3300m)
Sa, 29.01. 3:20 6(300m) 7(930m) 8(3300m)
Sa, 29.01. 3:10 8
Sa, 29.01. 3:00 1(300m) 8(3600m) 8(4200m)
Sa, 29.01. 2:50 1(300m) 8(3600m) 8(4200m)
Sa, 29.01. 2:40 8
Sa, 29.01. 2:30 3(330m) 8(3600m) 8(4500m)
Sa, 29.01. 2:00 7(3000m) 8(3900m) 8(4800m)
Sa, 29.01. 1:30 8(3000m) 8(4200m) 8(5100m)
Sa, 29.01. 1:00 8(3000m) 8(4800m) 8(6000m)
Sa, 29.01. 0:30 1(2400m) 8(3000m) 8(4500m)
Ortszeit Luftdruck NN (hPa) Tendenz (hPa in 3 Std.)
Sa, 29.01. 1:00 1036 - 1,4
Fr, 28.01. 19:00 1037 + 1,2
Fr, 28.01. 13:00 1036 + 0,4
Fr, 28.01. 7:00 1034 + 1,4
Fr, 28.01. 1:00 1031 + 2,5
Do, 27.01. 19:00 1028 + 0,2
Do, 27.01. 13:00 1030 - 1,3
Do, 27.01. 7:00 1032 - 0,7
Ortszeit Luftdruck NN (hPa) Tendenz (hPa in 3 Std.)
Sa, 29.01. 3:30 1034 - 1,7
Sa, 29.01. 3:20 1034 keine Meldung
Sa, 29.01. 3:10 1034 keine Meldung
Sa, 29.01. 3:00 1035 - 1,7
Sa, 29.01. 2:50 1035 keine Meldung
Sa, 29.01. 2:40 1035 keine Meldung
Sa, 29.01. 2:30 1035 - 2,0
Sa, 29.01. 2:00 1035 - 1,6
Sa, 29.01. 1:30 1036 - 1,3
Sa, 29.01. 1:00 1036 - 1,4
Sa, 29.01. 0:30 1036 - 1,4
Ortszeit Schneehöhe (cm)
Sa, 29.01. 1:00 0
Fr, 28.01. 19:00 0
Fr, 28.01. 13:00 0
Fr, 28.01. 7:00 0
Fr, 28.01. 1:00 0
Do, 27.01. 19:00 0
Do, 27.01. 13:00 0
Do, 27.01. 7:00 0
Ortszeit Schneehöhe (cm)
Sa, 29.01. 3:30 0
Sa, 29.01. 3:20 0
Sa, 29.01. 3:10 0
Sa, 29.01. 3:00 0
Sa, 29.01. 2:50 0
Sa, 29.01. 2:40 0
Sa, 29.01. 2:30 0
Sa, 29.01. 2:00 0
Sa, 29.01. 1:30 0
Sa, 29.01. 1:00 0
Sa, 29.01. 0:30 0
Link zu dieser Seite / Seite empfehlen

Das Wetter in ...